Record high temperature 44.9°C Record low temperature -0.3°C Record high gust 85.1 km/h Record high average 77.7 km/h Record daily rain 383.8 mm Record low windchill -4.5°C Record high barometer 1043.6 hPa Record low barometer 978.0 hPa
Daily high pressure 1014.0 mb Daily low pressure 1011.4 mb Daily low windchill 22.8°C Daily high heat index 33.1°C Daily high gust speed 37.0 kmh NNE Daily high average speed 22.0 kmh NE
Estación de MeteoMurcia.com -------- Murcia-Puente Tocinos
Ultima grabación a: 17:40 Data: 25 June 2017, time of next update: 17:50
Tiempo actualClear Temperatura actual30.1°C (86.2°F) (Indice de Calor30.3°C ), Temperatura aparente 29.9°C
Temperatura máxima (desde medianoche)33.1°C at: 15:07 Temperatura mínima (desde medianoche)22.8°C at: 07:07
Velocidad media del viento (diez minutos)11.7 kmh (6.3 kts) Dirección del viento (diez minutos)NE (47°)
Indice de Calor30.3°C ráfagas maxima (última hora)28.1 kmh (15.2 kts) at: 16:40
ráfagas maxima (desde medianoche)37.0 kmh (20.0 kts) at: 14:26 Maximo media de un minuto (desde medianoche)22.0 kmh (11.9 kts) at: 14:27
Lluvia (última hora)0.0 mm Lluvia (desde medianoche)0.0 mm (0.00 in.)---
Lluvia Este mes 0.5 mm (0.02 in.) Lluvia Hasta la fecha este año129.2 mm (5.09 in.)
Lluvia máxima por minuto (última hora)0.0 mm/min Lluvia maxima por hora (últimas 6 horas)0.0 mm/hora
Lluvia de ayer 0.0 mm Punto de rocío 16.5°C (Wet Bulb :21.5°C )
Humedad 44 %, Humidex 35.1°C Barómetro corregido a msl1011.6 mb
cambio de presión+0.2 mb (última hora) Tendencia (últimas 1 hora)ESTACIONARIO
cambio de presión (últimas 12 horas)-0.9 mb cambio de presión (últimas 6 horas)-1.6 mb
Current Temp. Interna 31.7°C
Current Hum. Interna 38%


Última imagen cámara web


Weather report/warning/Metars

Alicante / El Altet, Spain (LEAL) 38-17N 000-33W 31M
Jun 25, 2017 - 11:00 AM EDT / 2017.06.25 1500 UTC
Wind: from the E (080 degrees) at 17 MPH (15 KT):0
Visibility: greater than 7 mile(s):0
Temperature: 86 F (30 C)
Dew Point: 64 F (18 C)
Relative Humidity: 48%
Pressure (altimeter): 29.94 in. Hg (1014 hPa)
ob: LEAL 251500Z 08015KT CAVOK 30/18 Q1014 NOSIG
cycle: 15
Murcia / San Javier, Spain (LELC) 37-47N 000-48W 3M
Jun 25, 2017 - 11:00 AM EDT / 2017.06.25 1500 UTC
Wind: from the NE (050 degrees) at 14 MPH (12 KT) (direction variable):0
Visibility: 4 mile(s):0
Sky conditions: mostly clear
Temperature: 80 F (27 C)
Dew Point: 71 F (22 C)
Relative Humidity: 74%
Pressure (altimeter): 29.94 in. Hg (1014 hPa)
ob: LELC 251500Z 05012KT 010V090 8000 FEW010 27/22 Q1014 NOSIG
cycle: 15
Murcia / Alcantarilla, Spain (LERI) 37-57N 001-14W 75M
Jun 25, 2017 - 11:00 AM EDT / 2017.06.25 1500 UTC
Wind: from the ENE (070 degrees) at 12 MPH (10 KT):0
Visibility: greater than 7 mile(s):0
Temperature: 91 F (33 C)
Dew Point: 51 F (11 C)
Relative Humidity: 26%
Pressure (altimeter): 29.91 in. Hg (1013 hPa)
ob: LERI 251500Z 07010KT CAVOK 33/11 Q1013 NOSIG
cycle: 15
Gerona / Costa Brava, Spain (LEGE) 41-54N 002-46E 129M
Jun 25, 2017 - 11:00 AM EDT / 2017.06.25 1500 UTC
Wind: from the SSW (200 degrees) at 10 MPH (9 KT):0
Visibility: greater than 7 mile(s):0
Sky conditions: mostly clear
Temperature: 77 F (25 C)
Dew Point: 68 F (20 C)
Relative Humidity: 73%
Pressure (altimeter): 30.00 in. Hg (1016 hPa)
ob: LEGE 251500Z 20009KT 9999 FEW015 25/20 Q1016
cycle: 15
Madri-Colmenar, Spain (LECV) 40-39N 003-44W
Jun 25, 2017 - 11:23 AM EDT / 2017.06.25 1523 UTC
Wind: Variable at 28 MPH (24 KT) gusting to 46 MPH (40 KT):0
Visibility: 3 mile(s):0
Sky conditions: overcast
Weather: light rain showers; Cumulonimbus clouds observed
Temperature: 71 F (22 C)
Dew Point: 57 F (14 C)
Relative Humidity: 60%
Pressure (altimeter): 30.06 in. Hg (1018 hPa)
ob: LECV 251523Z VRB24G40KT 5000 -SHRA FEW050 OVC100CB 22/14 Q1018
cycle: 15
Asturias / Aviles, Spain (LEAS) 43-33N 006-02W 130M
Jun 25, 2017 - 11:00 AM EDT / 2017.06.25 1500 UTC
Wind: from the E (090 degrees) at 12 MPH (10 KT) (direction variable):0
Visibility: greater than 7 mile(s):0
Sky conditions: mostly cloudy
Temperature: 66 F (19 C)
Dew Point: 62 F (17 C)
Relative Humidity: 88%
Pressure (altimeter): 30.00 in. Hg (1016 hPa)
ob: LEAS 251500Z 09010KT 060V130 9999 SCT016 BKN024 19/17 Q1016 NOSIG
cycle: 15
Almeria / Aeropuerto, Spain (LEAM) 36-51N 002-23W 21M
Jun 25, 2017 - 11:00 AM EDT / 2017.06.25 1500 UTC
Wind: from the ENE (070 degrees) at 22 MPH (19 KT):0
Visibility: greater than 7 mile(s):0
Temperature: 93 F (34 C)
Dew Point: 62 F (17 C)
Relative Humidity: 36%
Pressure (altimeter): 29.83 in. Hg (1010 hPa)
ob: LEAM 251500Z 07019KT CAVOK 34/17 Q1010
cycle: 15
Pamplona / Noain, Spain (LEPP) 42-46N 001-38W 453M
Jun 25, 2017 - 11:00 AM EDT / 2017.06.25 1500 UTC
Wind: from the S (190 degrees) at 10 MPH (9 KT) (direction variable):0
Visibility: greater than 7 mile(s):0
Temperature: 86 F (30 C)
Dew Point: 55 F (13 C)
Relative Humidity: 35%
Pressure (altimeter): 30.00 in. Hg (1016 hPa)
ob: LEPP 251500Z 19009KT 160V230 CAVOK 30/13 Q1016
cycle: 15
Badajoz / Talavera La Real, Spain (LEBZ) 38-53N 006-49W 192M
Jun 25, 2017 - 11:00 AM EDT / 2017.06.25 1500 UTC
Wind: from the W (270 degrees) at 12 MPH (10 KT):0
Visibility: greater than 7 mile(s):0
Temperature: 80 F (27 C)
Dew Point: 60 F (16 C)
Relative Humidity: 50%
Pressure (altimeter): 29.94 in. Hg (1014 hPa)
ob: LEBZ 251500Z 27010KT CAVOK 27/16 Q1014
cycle: 15
Albacete / Los Llanos, Spain (LEAB) 38-57N 001-51W 704M
Jun 25, 2017 - 11:00 AM EDT / 2017.06.25 1500 UTC
Wind: from the S (170 degrees) at 14 MPH (12 KT) (direction variable):0
Visibility: greater than 7 mile(s):0
Temperature: 91 F (33 C)
Dew Point: 46 F (8 C)
Relative Humidity: 21%
Pressure (altimeter): 29.97 in. Hg (1015 hPa)
ob: LEAB 251500Z 17012KT 140V200 CAVOK 33/08 Q1015 NOSIG
cycle: 15



La informacion se graba a intervalos de 2 minutos, pero hay info grabada cada minuto. Optimizado para 800*600 y Color verdadero. Use el boton de

Use the RECARGA en su navegador para recojer la ulima info.

Clicar aquí para regarga diaria de medias/extremas del mes














Created by "Weather Display" software version 10.37S at this start time/date 11:13:53 05/06/2017

La estación de MeteoMurcia.com, publica sus datos en los siguientes proyectos:

Meteoclimatic www.awekas.at

W3Counter
Web Analytics